sensor_id;sensor_type;location;lat;lon;timestamp;pressure;altitude;pressure_sealevel;temperature;humidity
21240;BME280;10778;48.962;9.018;2023-02-01T00:01:46;99759.25;;;3.42;100.00
21240;BME280;10778;48.962;9.018;2023-02-01T00:04:12;99747.78;;;3.47;99.57
21240;BME280;10778;48.962;9.018;2023-02-01T00:06:38;99743.22;;;3.52;99.32
21240;BME280;10778;48.962;9.018;2023-02-01T00:09:04;99737.47;;;3.45;99.08
21240;BME280;10778;48.962;9.018;2023-02-01T00:11:30;99754.81;;;3.45;99.49
21240;BME280;10778;48.962;9.018;2023-02-01T00:13:56;99760.19;;;3.41;99.74
21240;BME280;10778;48.962;9.018;2023-02-01T00:16:25;99772.97;;;3.46;99.85
21240;BME280;10778;48.962;9.018;2023-02-01T00:18:55;99756.44;;;3.47;100.00
21240;BME280;10778;48.962;9.018;2023-02-01T00:21:22;99770.22;;;3.49;100.00
21240;BME280;10778;48.962;9.018;2023-02-01T00:23:48;99776.34;;;3.48;100.00
21240;BME280;10778;48.962;9.018;2023-02-01T00:26:19;99771.97;;;3.49;100.00
21240;BME280;10778;48.962;9.018;2023-02-01T00:28:47;99766.38;;;3.56;100.00
21240;BME280;10778;48.962;9.018;2023-02-01T00:31:13;99770.97;;;3.51;100.00
21240;BME280;10778;48.962;9.018;2023-02-01T00:33:40;99757.66;;;3.58;100.00
21240;BME280;10778;48.962;9.018;2023-02-01T00:36:12;99753.63;;;3.52;100.00
21240;BME280;10778;48.962;9.018;2023-02-01T00:38:39;99732.66;;;3.55;100.00
21240;BME280;10778;48.962;9.018;2023-02-01T00:41:11;99723.16;;;3.54;99.79
21240;BME280;10778;48.962;9.018;2023-02-01T00:43:38;99710.16;;;3.54;99.75
21240;BME280;10778;48.962;9.018;2023-02-01T00:46:05;99710.16;;;3.54;99.70
21240;BME280;10778;48.962;9.018;2023-02-01T00:48:31;99708.47;;;3.53;99.89
21240;BME280;10778;48.962;9.018;2023-02-01T00:51:08;99704.09;;;3.53;99.58
21240;BME280;10778;48.962;9.018;2023-02-01T00:53:35;99710.06;;;3.55;99.18
21240;BME280;10778;48.962;9.018;2023-02-01T00:56:02;99710.59;;;3.62;99.02
21240;BME280;10778;48.962;9.018;2023-02-01T00:58:28;99717.41;;;3.65;98.27
21240;BME280;10778;48.962;9.018;2023-02-01T01:01:06;99714.03;;;3.63;98.67
21240;BME280;10778;48.962;9.018;2023-02-01T01:03:35;99698.28;;;3.66;98.15
21240;BME280;10778;48.962;9.018;2023-02-01T01:06:06;99703.16;;;3.72;97.88
21240;BME280;10778;48.962;9.018;2023-02-01T01:08:33;99710.13;;;3.72;97.53
21240;BME280;10778;48.962;9.018;2023-02-01T01:11:04;99705.00;;;3.70;97.50
21240;BME280;10778;48.962;9.018;2023-02-01T01:13:30;99710.19;;;3.70;97.58
21240;BME280;10778;48.962;9.018;2023-02-01T01:16:00;99712.41;;;3.78;97.52
21240;BME280;10778;48.962;9.018;2023-02-01T01:18:30;99720.28;;;3.76;97.46
21240;BME280;10778;48.962;9.018;2023-02-01T01:20:56;99711.59;;;3.77;98.01
21240;BME280;10778;48.962;9.018;2023-02-01T01:23:22;99723.66;;;3.78;97.86
21240;BME280;10778;48.962;9.018;2023-02-01T01:25:48;99718.47;;;3.78;98.22
21240;BME280;10778;48.962;9.018;2023-02-01T01:28:15;99719.97;;;3.82;98.35
21240;BME280;10778;48.962;9.018;2023-02-01T01:30:41;99715.75;;;3.80;97.98
21240;BME280;10778;48.962;9.018;2023-02-01T01:33:07;99711.31;;;3.82;97.67
21240;BME280;10778;48.962;9.018;2023-02-01T01:35:33;99714.69;;;3.84;97.42
21240;BME280;10778;48.962;9.018;2023-02-01T01:38:00;99715.47;;;3.86;98.12
21240;BME280;10778;48.962;9.018;2023-02-01T01:40:27;99712.34;;;3.79;98.31
21240;BME280;10778;48.962;9.018;2023-02-01T01:42:54;99718.19;;;3.83;98.23
21240;BME280;10778;48.962;9.018;2023-02-01T01:45:30;99722.75;;;3.79;98.49
21240;BME280;10778;48.962;9.018;2023-02-01T01:48:05;99720.22;;;3.78;99.83
21240;BME280;10778;48.962;9.018;2023-02-01T01:50:40;99712.41;;;3.78;100.00
21240;BME280;10778;48.962;9.018;2023-02-01T01:53:08;99710.78;;;3.75;99.96
21240;BME280;10778;48.962;9.018;2023-02-01T01:55:39;99711.59;;;3.77;100.00
21240;BME280;10778;48.962;9.018;2023-02-01T01:58:14;99717.59;;;3.78;100.00
21240;BME280;10778;48.962;9.018;2023-02-01T02:00:42;99714.94;;;3.79;99.88
21240;BME280;10778;48.962;9.018;2023-02-01T02:03:18;99711.31;;;3.82;99.86
21240;BME280;10778;48.962;9.018;2023-02-01T02:05:48;99718.31;;;3.81;99.61
21240;BME280;10778;48.962;9.018;2023-02-01T02:08:15;99711.09;;;3.87;99.09
21240;BME280;10778;48.962;9.018;2023-02-01T02:10:42;99705.19;;;3.83;98.96
21240;BME280;10778;48.962;9.018;2023-02-01T02:13:38;99694.88;;;3.81;99.20
21240;BME280;10778;48.962;9.018;2023-02-01T02:16:27;99699.00;;;3.86;98.97
21240;BME280;10778;48.962;9.018;2023-02-01T02:24:56;99699.06;;;3.84;98.81
21240;BME280;10778;48.962;9.018;2023-02-01T02:35:46;99692.78;;;3.88;98.16
21240;BME280;10778;48.962;9.018;2023-02-01T02:40:49;99691.13;;;3.87;97.64
21240;BME280;10778;48.962;9.018;2023-02-01T02:43:43;99684.81;;;3.91;97.89
21240;BME280;10778;48.962;9.018;2023-02-01T02:46:38;99682.28;;;3.90;98.17
21240;BME280;10778;48.962;9.018;2023-02-01T02:49:49;99682.38;;;3.88;97.91
21240;BME280;10778;48.962;9.018;2023-02-01T02:52:43;99677.19;;;3.88;97.43
21240;BME280;10778;48.962;9.018;2023-02-01T02:55:31;99677.00;;;3.91;96.96
21240;BME280;10778;48.962;9.018;2023-02-01T02:58:01;99677.75;;;3.93;96.93
21240;BME280;10778;48.962;9.018;2023-02-01T03:00:47;99671.81;;;3.91;97.12
21240;BME280;10778;48.962;9.018;2023-02-01T03:03:39;99653.41;;;3.94;96.71
21240;BME280;10778;48.962;9.018;2023-02-01T03:06:25;99652.81;;;3.89;97.23
21240;BME280;10778;48.962;9.018;2023-02-01T03:08:53;99637.97;;;3.91;97.19
21240;BME280;10778;48.962;9.018;2023-02-01T03:11:23;99629.28;;;3.91;97.06
21240;BME280;10778;48.962;9.018;2023-02-01T03:13:56;99641.31;;;3.93;96.70
21240;BME280;10778;48.962;9.018;2023-02-01T03:16:27;99646.13;;;4.01;96.40
21240;BME280;10778;48.962;9.018;2023-02-01T03:18:59;99637.72;;;3.96;96.71
21240;BME280;10778;48.962;9.018;2023-02-01T03:21:32;99644.59;;;3.97;96.29
21240;BME280;10778;48.962;9.018;2023-02-01T03:24:07;99633.34;;;3.96;96.60
21240;BME280;10778;48.962;9.018;2023-02-01T03:26:39;99634.09;;;3.98;96.59
21240;BME280;10778;48.962;9.018;2023-02-01T03:29:13;99631.50;;;3.98;96.41
21240;BME280;10778;48.962;9.018;2023-02-01T03:31:42;99628.81;;;4.00;96.19
21240;BME280;10778;48.962;9.018;2023-02-01T03:34:10;99635.63;;;4.03;96.27
21240;BME280;10778;48.962;9.018;2023-02-01T03:36:42;99635.03;;;3.97;96.24
21240;BME280;10778;48.962;9.018;2023-02-01T03:39:29;99629.75;;;3.99;96.02
21240;BME280;10778;48.962;9.018;2023-02-01T03:42:00;99640.16;;;3.99;95.61
21240;BME280;10778;48.962;9.018;2023-02-01T03:47:35;99620.00;;;4.03;94.61
21240;BME280;10778;48.962;9.018;2023-02-01T03:50:09;99622.75;;;3.99;94.70
21240;BME280;10778;48.962;9.018;2023-02-01T03:55:09;99620.91;;;4.02;94.52
21240;BME280;10778;48.962;9.018;2023-02-01T03:57:41;99607.00;;;4.03;94.17
21240;BME280;10778;48.962;9.018;2023-02-01T04:00:19;99597.75;;;3.97;94.35
21240;BME280;10778;48.962;9.018;2023-02-01T04:02:50;99608.06;;;3.98;94.83
21240;BME280;10778;48.962;9.018;2023-02-01T04:05:17;99596.72;;;3.99;94.77
21240;BME280;10778;48.962;9.018;2023-02-01T04:07:51;99592.44;;;3.98;94.62
21240;BME280;10778;48.962;9.018;2023-02-01T04:10:17;99585.25;;;4.04;94.17
21240;BME280;10778;48.962;9.018;2023-02-01T04:12:43;99613.53;;;4.10;93.38
21240;BME280;10778;48.962;9.018;2023-02-01T04:15:10;99600.75;;;4.05;93.83
21240;BME280;10778;48.962;9.018;2023-02-01T04:17:36;99599.66;;;4.09;93.93
21240;BME280;10778;48.962;9.018;2023-02-01T04:20:02;99595.38;;;4.08;93.60
21240;BME280;10778;48.962;9.018;2023-02-01T04:22:29;99603.69;;;4.15;92.92
21240;BME280;10778;48.962;9.018;2023-02-01T04:24:55;99626.38;;;4.13;93.68
21240;BME280;10778;48.962;9.018;2023-02-01T04:27:21;99636.72;;;4.15;93.80
21240;BME280;10778;48.962;9.018;2023-02-01T04:29:47;99630.50;;;4.17;93.48
21240;BME280;10778;48.962;9.018;2023-02-01T04:32:16;99623.69;;;4.15;93.78
21240;BME280;10778;48.962;9.018;2023-02-01T04:34:42;99617.41;;;4.19;93.48
21240;BME280;10778;48.962;9.018;2023-02-01T04:37:09;99622.84;;;4.14;93.54
21240;BME280;10778;48.962;9.018;2023-02-01T04:39:35;99617.75;;;4.12;93.96
21240;BME280;10778;48.962;9.018;2023-02-01T04:42:01;99618.06;;;4.06;94.67
21240;BME280;10778;48.962;9.018;2023-02-01T04:44:27;99578.34;;;4.03;94.98
21240;BME280;10778;48.962;9.018;2023-02-01T04:46:53;99565.47;;;3.99;94.80
21240;BME280;10778;48.962;9.018;2023-02-01T04:49:19;99594.28;;;3.96;95.81
21240;BME280;10778;48.962;9.018;2023-02-01T04:51:47;99585.03;;;3.91;95.75
21240;BME280;10778;48.962;9.018;2023-02-01T04:54:13;99584.28;;;3.89;95.33
21240;BME280;10778;48.962;9.018;2023-02-01T04:56:40;99590.34;;;3.89;94.87
21240;BME280;10778;48.962;9.018;2023-02-01T04:59:06;99589.44;;;3.90;94.99
21240;BME280;10778;48.962;9.018;2023-02-01T05:01:32;99589.25;;;3.93;94.45
21240;BME280;10778;48.962;9.018;2023-02-01T05:03:58;99595.31;;;3.94;94.94
21240;BME280;10778;48.962;9.018;2023-02-01T05:06:24;99591.69;;;3.96;94.53
21240;BME280;10778;48.962;9.018;2023-02-01T05:08:50;99600.06;;;4.02;95.05
21240;BME280;10778;48.962;9.018;2023-02-01T05:11:16;99600.75;;;3.89;97.39
21240;BME280;10778;48.962;9.018;2023-02-01T05:14:01;99606.78;;;3.74;100.00
21240;BME280;10778;48.962;9.018;2023-02-01T05:16:27;99599.91;;;3.73;100.00
21240;BME280;10778;48.962;9.018;2023-02-01T05:18:53;99605.75;;;3.60;100.00
21240;BME280;10778;48.962;9.018;2023-02-01T05:21:19;99603.31;;;3.57;100.00
21240;BME280;10778;48.962;9.018;2023-02-01T05:23:45;99599.28;;;3.51;100.00
21240;BME280;10778;48.962;9.018;2023-02-01T05:26:30;99583.66;;;3.51;100.00
21240;BME280;10778;48.962;9.018;2023-02-01T05:28:56;99590.59;;;3.51;100.00
21240;BME280;10778;48.962;9.018;2023-02-01T05:31:23;99590.22;;;3.59;100.00
21240;BME280;10778;48.962;9.018;2023-02-01T05:33:50;99591.28;;;3.54;100.00
21240;BME280;10778;48.962;9.018;2023-02-01T05:36:16;99607.25;;;3.64;100.00
21240;BME280;10778;48.962;9.018;2023-02-01T05:38:42;99607.63;;;3.74;100.00
21240;BME280;10778;48.962;9.018;2023-02-01T05:41:08;99610.66;;;3.82;100.00
21240;BME280;10778;48.962;9.018;2023-02-01T05:43:34;99607.81;;;3.87;100.00
21240;BME280;10778;48.962;9.018;2023-02-01T05:46:00;99619.16;;;3.86;99.30
21240;BME280;10778;48.962;9.018;2023-02-01T05:48:26;99615.47;;;3.90;99.47
21240;BME280;10778;48.962;9.018;2023-02-01T05:50:54;99626.63;;;4.08;99.15
21240;BME280;10778;48.962;9.018;2023-02-01T05:53:20;99614.63;;;4.22;97.77
21240;BME280;10778;48.962;9.018;2023-02-01T05:55:46;99641.84;;;4.16;98.25
21240;BME280;10778;48.962;9.018;2023-02-01T05:58:12;99648.38;;;4.39;97.08
21240;BME280;10778;48.962;9.018;2023-02-01T06:00:38;99655.44;;;4.05;97.72
21240;BME280;10778;48.962;9.018;2023-02-01T06:03:04;99646.19;;;3.99;97.90
21240;BME280;10778;48.962;9.018;2023-02-01T06:05:30;99626.88;;;4.20;98.09
21240;BME280;10778;48.962;9.018;2023-02-01T06:07:56;99639.50;;;4.11;97.62
21240;BME280;10778;48.962;9.018;2023-02-01T06:10:22;99645.13;;;4.04;97.88
21240;BME280;10778;48.962;9.018;2023-02-01T06:12:48;99637.78;;;4.10;98.06
21240;BME280;10778;48.962;9.018;2023-02-01T06:15:15;99638.41;;;4.16;98.11
21240;BME280;10778;48.962;9.018;2023-02-01T06:17:43;99630.69;;;4.30;98.57
21240;BME280;10778;48.962;9.018;2023-02-01T06:20:11;99638.22;;;4.19;99.35
21240;BME280;10778;48.962;9.018;2023-02-01T06:22:37;99638.81;;;4.24;98.72
21240;BME280;10778;48.962;9.018;2023-02-01T06:25:04;99635.78;;;4.32;98.72
21240;BME280;10778;48.962;9.018;2023-02-01T06:27:31;99626.63;;;4.24;98.26
21240;BME280;10778;48.962;9.018;2023-02-01T06:29:57;99612.69;;;4.25;98.19
21240;BME280;10778;48.962;9.018;2023-02-01T06:32:24;99616.88;;;4.12;98.88
21240;BME280;10778;48.962;9.018;2023-02-01T06:34:50;99618.81;;;4.24;98.23
21240;BME280;10778;48.962;9.018;2023-02-01T06:37:19;99619.34;;;4.31;97.61
21240;BME280;10778;48.962;9.018;2023-02-01T06:39:45;99621.34;;;4.10;98.04
21240;BME280;10778;48.962;9.018;2023-02-01T06:42:11;99621.75;;;4.18;97.64
21240;BME280;10778;48.962;9.018;2023-02-01T06:44:37;99609.22;;;4.25;97.99
21240;BME280;10778;48.962;9.018;2023-02-01T06:47:04;99620.34;;;4.12;99.10
21240;BME280;10778;48.962;9.018;2023-02-01T06:49:30;99634.28;;;4.11;99.92
21240;BME280;10778;48.962;9.018;2023-02-01T06:51:56;99643.34;;;3.88;100.00
21240;BME280;10778;48.962;9.018;2023-02-01T06:54:22;99639.34;;;3.81;100.00
21240;BME280;10778;48.962;9.018;2023-02-01T06:56:48;99640.13;;;3.83;100.00
21240;BME280;10778;48.962;9.018;2023-02-01T06:59:14;99649.78;;;3.81;100.00
21240;BME280;10778;48.962;9.018;2023-02-01T07:01:40;99655.91;;;3.80;100.00
21240;BME280;10778;48.962;9.018;2023-02-01T07:04:06;99666.41;;;3.78;100.00
21240;BME280;10778;48.962;9.018;2023-02-01T07:06:32;99668.09;;;3.79;100.00
21240;BME280;10778;48.962;9.018;2023-02-01T07:08:58;99674.63;;;3.70;100.00
21240;BME280;10778;48.962;9.018;2023-02-01T07:11:24;99668.56;;;3.70;100.00
21240;BME280;10778;48.962;9.018;2023-02-01T07:13:50;99673.84;;;3.68;100.00
21240;BME280;10778;48.962;9.018;2023-02-01T07:16:18;99682.44;;;3.70;100.00
21240;BME280;10778;48.962;9.018;2023-02-01T07:18:45;99678.63;;;3.76;100.00
21240;BME280;10778;48.962;9.018;2023-02-01T07:21:11;99690.13;;;3.72;100.00
21240;BME280;10778;48.962;9.018;2023-02-01T07:23:38;99678.91;;;3.72;100.00
21240;BME280;10778;48.962;9.018;2023-02-01T07:26:06;99681.66;;;3.68;100.00
21240;BME280;10778;48.962;9.018;2023-02-01T07:28:34;99676.94;;;3.75;100.00
21240;BME280;10778;48.962;9.018;2023-02-01T07:33:30;99668.91;;;3.80;100.00
21240;BME280;10778;48.962;9.018;2023-02-01T07:35:56;99686.97;;;3.83;100.00
21240;BME280;10778;48.962;9.018;2023-02-01T07:38:22;99687.66;;;3.87;100.00
21240;BME280;10778;48.962;9.018;2023-02-01T07:40:49;99682.53;;;3.85;100.00
21240;BME280;10778;48.962;9.018;2023-02-01T07:43:15;99690.78;;;3.93;100.00
21240;BME280;10778;48.962;9.018;2023-02-01T07:45:41;99680.53;;;3.90;100.00
21240;BME280;10778;48.962;9.018;2023-02-01T07:48:07;99690.09;;;3.90;100.00
21240;BME280;10778;48.962;9.018;2023-02-01T07:50:34;99673.19;;;3.81;100.00
21240;BME280;10778;48.962;9.018;2023-02-01T07:53:00;99676.81;;;3.78;100.00
21240;BME280;10778;48.962;9.018;2023-02-01T07:55:27;99682.63;;;3.83;100.00
21240;BME280;10778;48.962;9.018;2023-02-01T07:57:57;99684.22;;;3.86;100.00
21240;BME280;10778;48.962;9.018;2023-02-01T08:00:23;99680.31;;;3.95;100.00
21240;BME280;10778;48.962;9.018;2023-02-01T08:03:07;99674.25;;;3.94;100.00
21240;BME280;10778;48.962;9.018;2023-02-01T08:05:33;99666.88;;;4.03;100.00
21240;BME280;10778;48.962;9.018;2023-02-01T08:07:59;99669.13;;;4.09;100.00
21240;BME280;10778;48.962;9.018;2023-02-01T08:10:25;99673.09;;;4.16;100.00
21240;BME280;10778;48.962;9.018;2023-02-01T08:12:51;99665.59;;;4.26;100.00
21240;BME280;10778;48.962;9.018;2023-02-01T08:15:17;99670.50;;;4.32;99.35
21240;BME280;10778;48.962;9.018;2023-02-01T08:17:48;99667.03;;;4.64;96.95
21240;BME280;10778;48.962;9.018;2023-02-01T08:20:15;99674.38;;;5.04;94.99
21240;BME280;10778;48.962;9.018;2023-02-01T08:22:41;99670.13;;;5.17;92.45
21240;BME280;10778;48.962;9.018;2023-02-01T08:25:08;99670.19;;;4.85;93.72
21240;BME280;10778;48.962;9.018;2023-02-01T08:27:34;99679.56;;;4.57;95.00
21240;BME280;10778;48.962;9.018;2023-02-01T08:30:01;99676.53;;;4.65;94.59
21240;BME280;10778;48.962;9.018;2023-02-01T08:32:27;99686.81;;;4.52;95.76
21240;BME280;10778;48.962;9.018;2023-02-01T08:34:53;99689.41;;;4.52;95.49
21240;BME280;10778;48.962;9.018;2023-02-01T08:37:19;99689.41;;;4.52;95.38
21240;BME280;10778;48.962;9.018;2023-02-01T08:39:45;99687.72;;;4.51;95.52
21240;BME280;10778;48.962;9.018;2023-02-01T08:42:12;99698.16;;;4.51;95.14
21240;BME280;10778;48.962;9.018;2023-02-01T08:44:57;99706.66;;;4.54;95.33
21240;BME280;10778;48.962;9.018;2023-02-01T08:47:23;99701.69;;;4.50;94.46
21240;BME280;10778;48.962;9.018;2023-02-01T08:49:49;99703.25;;;4.52;94.25
21240;BME280;10778;48.962;9.018;2023-02-01T08:52:15;99697.97;;;4.54;93.28
21240;BME280;10778;48.962;9.018;2023-02-01T08:54:41;99703.44;;;4.49;93.48
21240;BME280;10778;48.962;9.018;2023-02-01T08:57:07;99695.53;;;4.51;93.09
21240;BME280;10778;48.962;9.018;2023-02-01T08:59:35;99718.41;;;4.46;94.40
21240;BME280;10778;48.962;9.018;2023-02-01T09:02:01;99703.03;;;4.41;94.39
21240;BME280;10778;48.962;9.018;2023-02-01T09:04:27;99704.78;;;4.40;94.50
21240;BME280;10778;48.962;9.018;2023-02-01T09:06:53;99706.28;;;4.45;94.01
21240;BME280;10778;48.962;9.018;2023-02-01T09:09:22;99699.41;;;4.44;94.78
21240;BME280;10778;48.962;9.018;2023-02-01T09:11:48;99697.47;;;4.63;93.75
21240;BME280;10778;48.962;9.018;2023-02-01T09:14:16;99687.72;;;5.13;91.71
21240;BME280;10778;48.962;9.018;2023-02-01T09:16:42;99693.91;;;4.96;91.15
21240;BME280;10778;48.962;9.018;2023-02-01T09:19:08;99695.53;;;4.83;92.59
21240;BME280;10778;48.962;9.018;2023-02-01T09:21:35;99701.50;;;4.69;93.55
21240;BME280;10778;48.962;9.018;2023-02-01T09:24:01;99703.13;;;4.55;93.94
21240;BME280;10778;48.962;9.018;2023-02-01T09:26:27;99698.47;;;4.61;93.47
21240;BME280;10778;48.962;9.018;2023-02-01T09:28:53;99684.16;;;4.68;93.84
21240;BME280;10778;48.962;9.018;2023-02-01T09:31:19;99689.56;;;4.65;92.80
21240;BME280;10778;48.962;9.018;2023-02-01T09:33:45;99692.81;;;4.84;91.57
21240;BME280;10778;48.962;9.018;2023-02-01T09:36:12;99701.94;;;5.08;90.12
21240;BME280;10778;48.962;9.018;2023-02-01T09:38:38;99712.03;;;5.14;89.51
21240;BME280;10778;48.962;9.018;2023-02-01T09:41:22;99688.97;;;5.37;86.87
21240;BME280;10778;48.962;9.018;2023-02-01T09:44:11;99687.22;;;5.52;85.94
21240;BME280;10778;48.962;9.018;2023-02-01T09:46:40;99689.59;;;6.00;83.58
21240;BME280;10778;48.962;9.018;2023-02-01T09:49:15;99682.41;;;6.33;81.96
21240;BME280;10778;48.962;9.018;2023-02-01T09:51:47;99691.84;;;6.35;81.49
21240;BME280;10778;48.962;9.018;2023-02-01T09:54:17;99706.47;;;6.23;81.10
21240;BME280;10778;48.962;9.018;2023-02-01T09:56:46;99692.31;;;6.13;79.59
21240;BME280;10778;48.962;9.018;2023-02-01T09:59:29;99706.66;;;5.77;80.92
21240;BME280;10778;48.962;9.018;2023-02-01T10:01:57;99723.22;;;6.06;81.91
21240;BME280;10778;48.962;9.018;2023-02-01T10:04:25;99717.50;;;6.43;78.77
21240;BME280;10778;48.962;9.018;2023-02-01T10:07:02;99716.34;;;6.62;77.45
21240;BME280;10778;48.962;9.018;2023-02-01T10:15:02;99726.59;;;7.33;74.04
21240;BME280;10778;48.962;9.018;2023-02-01T10:17:43;99716.47;;;7.28;74.91
21240;BME280;10778;48.962;9.018;2023-02-01T10:28:48;99761.28;;;5.65;81.54
21240;BME280;10778;48.962;9.018;2023-02-01T10:31:15;99760.47;;;5.79;81.12
21240;BME280;10778;48.962;9.018;2023-02-01T10:33:48;99766.97;;;5.72;82.00
21240;BME280;10778;48.962;9.018;2023-02-01T10:36:20;99774.03;;;5.55;82.60
21240;BME280;10778;48.962;9.018;2023-02-01T10:38:47;99751.47;;;5.54;82.96
21240;BME280;10778;48.962;9.018;2023-02-01T10:41:20;99766.31;;;5.68;82.39
21240;BME280;10778;48.962;9.018;2023-02-01T10:43:53;99760.69;;;5.46;82.59
21240;BME280;10778;48.962;9.018;2023-02-01T10:46:22;99759.19;;;5.87;81.61
21240;BME280;10778;48.962;9.018;2023-02-01T10:48:50;99774.63;;;5.75;81.42
21240;BME280;10778;48.962;9.018;2023-02-01T10:51:24;99766.97;;;5.72;82.00
21240;BME280;10778;48.962;9.018;2023-02-01T10:53:58;99760.47;;;5.79;80.56
21240;BME280;10778;48.962;9.018;2023-02-01T10:56:28;99778.38;;;5.40;81.20
21240;BME280;10778;48.962;9.018;2023-02-01T10:59:03;99765.41;;;5.39;81.76
21240;BME280;10778;48.962;9.018;2023-02-01T11:01:42;99766.97;;;5.27;82.79
21240;BME280;10778;48.962;9.018;2023-02-01T11:04:19;99762.16;;;5.19;83.52
21240;BME280;10778;48.962;9.018;2023-02-01T11:06:53;99757.84;;;5.34;82.93
21240;BME280;10778;48.962;9.018;2023-02-01T11:09:30;99757.09;;;5.32;82.22
21240;BME280;10778;48.962;9.018;2023-02-01T11:11:58;99753.97;;;5.25;82.11
21240;BME280;10778;48.962;9.018;2023-02-01T11:16:57;99747.50;;;5.33;82.98
21240;BME280;10778;48.962;9.018;2023-02-01T11:19:23;99742.97;;;5.20;81.71
21240;BME280;10778;48.962;9.018;2023-02-01T11:21:51;99730.31;;;5.29;81.39
21240;BME280;10778;48.962;9.018;2023-02-01T11:24:36;99741.75;;;5.42;81.89
21240;BME280;10778;48.962;9.018;2023-02-01T11:27:06;99738.63;;;5.35;81.46
21240;BME280;10778;48.962;9.018;2023-02-01T11:29:41;99730.44;;;5.27;81.06
21240;BME280;10778;48.962;9.018;2023-02-01T11:32:10;99717.88;;;5.34;81.06
21240;BME280;10778;48.962;9.018;2023-02-01T11:37:16;99697.63;;;5.37;80.31
21240;BME280;10778;48.962;9.018;2023-02-01T11:39:53;99711.28;;;5.43;79.88
21240;BME280;10778;48.962;9.018;2023-02-01T11:42:19;99694.88;;;5.40;79.68
21240;BME280;10778;48.962;9.018;2023-02-01T11:44:47;99689.66;;;5.40;79.94
21240;BME280;10778;48.962;9.018;2023-02-01T11:49:58;99678.56;;;5.51;78.97
21240;BME280;10778;48.962;9.018;2023-02-01T12:01:02;99685.56;;;5.51;78.58
21240;BME280;10778;48.962;9.018;2023-02-01T12:09:40;99679.81;;;5.30;78.61
21240;BME280;10778;48.962;9.018;2023-02-01T12:17:41;99686.25;;;5.24;80.39
21240;BME280;10778;48.962;9.018;2023-02-01T12:26:23;99680.41;;;5.35;79.90
21240;BME280;10778;48.962;9.018;2023-02-01T12:29:15;99680.31;;;5.36;79.72
21240;BME280;10778;48.962;9.018;2023-02-01T12:32:05;99680.41;;;5.35;79.24
21240;BME280;10778;48.962;9.018;2023-02-01T12:40:46;99680.25;;;5.52;79.90
21240;BME280;10778;48.962;9.018;2023-02-01T12:43:38;99682.38;;;5.46;79.28
21240;BME280;10778;48.962;9.018;2023-02-01T12:46:13;99685.94;;;5.88;78.80
21240;BME280;10778;48.962;9.018;2023-02-01T12:51:20;99690.44;;;5.86;75.72
21240;BME280;10778;48.962;9.018;2023-02-01T12:53:54;99684.47;;;5.84;77.14
21240;BME280;10778;48.962;9.018;2023-02-01T12:56:42;99671.13;;;5.89;77.75
21240;BME280;10778;48.962;9.018;2023-02-01T12:59:25;99678.97;;;5.89;77.93
21240;BME280;10778;48.962;9.018;2023-02-01T13:01:56;99675.13;;;5.80;78.47
21240;BME280;10778;48.962;9.018;2023-02-01T13:04:30;99659.63;;;5.48;79.39
21240;BME280;10778;48.962;9.018;2023-02-01T13:07:04;99668.41;;;5.47;80.96
21240;BME280;10778;48.962;9.018;2023-02-01T13:09:41;99670.00;;;5.49;80.97
21240;BME280;10778;48.962;9.018;2023-02-01T13:12:35;99668.56;;;5.29;81.84
21240;BME280;10778;48.962;9.018;2023-02-01T13:15:13;99662.09;;;5.20;81.92
21240;BME280;10778;48.962;9.018;2023-02-01T13:17:41;99660.25;;;5.22;82.44
21240;BME280;10778;48.962;9.018;2023-02-01T13:20:28;99660.44;;;5.19;82.38
21240;BME280;10778;48.962;9.018;2023-02-01T13:23:14;99676.31;;;5.31;81.87
21240;BME280;10778;48.962;9.018;2023-02-01T13:25:49;99661.69;;;5.12;82.77
21240;BME280;10778;48.962;9.018;2023-02-01T13:39:45;99631.94;;;5.16;82.62
21240;BME280;10778;48.962;9.018;2023-02-01T13:45:02;99633.50;;;5.19;81.94
21240;BME280;10778;48.962;9.018;2023-02-01T13:47:32;99615.72;;;5.40;80.88
21240;BME280;10778;48.962;9.018;2023-02-01T13:50:12;99625.16;;;5.43;80.86
21240;BME280;10778;48.962;9.018;2023-02-01T13:52:43;99618.81;;;5.32;81.01
21240;BME280;10778;48.962;9.018;2023-02-01T13:57:41;99621.53;;;5.31;81.17
21240;BME280;10778;48.962;9.018;2023-02-01T14:13:41;99630.97;;;5.03;82.56
21240;BME280;10778;48.962;9.018;2023-02-01T14:16:12;99630.97;;;5.03;83.61
21240;BME280;10778;48.962;9.018;2023-02-01T14:23:53;99636.06;;;4.90;84.41
21240;BME280;10778;48.962;9.018;2023-02-01T14:29:14;99646.13;;;4.96;84.34
21240;BME280;10778;48.962;9.018;2023-02-01T14:31:51;99650.59;;;4.94;84.64
21240;BME280;10778;48.962;9.018;2023-02-01T14:34:30;99655.97;;;4.91;84.16
21240;BME280;10778;48.962;9.018;2023-02-01T14:37:00;99649.25;;;4.87;84.51
21240;BME280;10778;48.962;9.018;2023-02-01T14:42:24;99656.97;;;4.88;82.87
21240;BME280;10778;48.962;9.018;2023-02-01T14:44:52;99649.41;;;4.83;83.09
21240;BME280;10778;48.962;9.018;2023-02-01T14:52:42;99652.63;;;4.89;81.80
21240;BME280;10778;48.962;9.018;2023-02-01T14:55:21;99645.09;;;4.98;81.69
21240;BME280;10778;48.962;9.018;2023-02-01T14:57:52;99640.03;;;4.95;80.90
21240;BME280;10778;48.962;9.018;2023-02-01T15:02:49;99651.41;;;4.94;81.40
21240;BME280;10778;48.962;9.018;2023-02-01T15:05:32;99627.88;;;4.96;79.77
21240;BME280;10778;48.962;9.018;2023-02-01T15:08:13;99616.50;;;4.97;79.96
21240;BME280;10778;48.962;9.018;2023-02-01T15:10:47;99647.13;;;4.93;80.01
21240;BME280;10778;48.962;9.018;2023-02-01T15:13:23;99645.19;;;4.97;79.35
21240;BME280;10778;48.962;9.018;2023-02-01T15:16:13;99657.22;;;5.00;78.71
21240;BME280;10778;48.962;9.018;2023-02-01T15:18:40;99654.13;;;4.93;79.73
21240;BME280;10778;48.962;9.018;2023-02-01T15:21:16;99652.19;;;4.96;79.22
21240;BME280;10778;48.962;9.018;2023-02-01T15:23:42;99644.94;;;5.02;79.52
21240;BME280;10778;48.962;9.018;2023-02-01T15:26:08;99654.16;;;5.07;79.28
21240;BME280;10778;48.962;9.018;2023-02-01T15:28:34;99656.03;;;5.05;79.55
21240;BME280;10778;48.962;9.018;2023-02-01T15:31:05;99636.00;;;5.06;79.21
21240;BME280;10778;48.962;9.018;2023-02-01T15:33:33;99642.13;;;5.05;78.80
21240;BME280;10778;48.962;9.018;2023-02-01T15:38:32;99663.38;;;5.13;79.70
21240;BME280;10778;48.962;9.018;2023-02-01T15:41:13;99656.59;;;5.10;79.09